Time;durP1;ratioP1;P1;durP2;ratioP2;P2;SDS_P1;SDS_P2;PMS_P1;PMS_P2;Temp;Humidity;BMP_temperature;BMP_pressure;BME280_temperature;BME280_humidity;BME280_pressure;Samples;Min_cycle;Max_cycle;Signal;HPM_P1;HPM_P2
2021/12/07 00:00:08;;;;;;;24.40;22.70;;;2.90;99.90;;;;;;5052327;28;20487;-71
2021/12/07 00:02:34;;;;;;;23.37;21.90;;;2.90;99.90;;;;;;5050006;28;20576;-70
2021/12/07 00:05:02;;;;;;;22.53;21.23;;;2.90;99.90;;;;;;5057509;28;20542;-68
2021/12/07 00:07:29;;;;;;;22.07;20.63;;;2.80;99.90;;;;;;5056156;28;20551;-72
2021/12/07 00:09:56;;;;;;;23.47;21.87;;;2.70;99.90;;;;;;5058014;28;20839;-71
2021/12/07 00:12:25;;;;;;;24.10;22.40;;;2.70;99.90;;;;;;5057596;28;20461;-71
2021/12/07 00:15:01;;;;;;;23.87;22.40;;;2.70;99.90;;;;;;5054078;28;20478;-71
2021/12/07 00:17:27;;;;;;;22.53;21.23;;;2.70;99.90;;;;;;5054312;28;20491;-71
2021/12/07 00:19:54;;;;;;;24.77;23.17;;;2.60;99.90;;;;;;5054997;28;20832;-70
2021/12/07 00:22:21;;;;;;;26.20;24.30;;;2.50;99.90;;;;;;5059363;28;20540;-69
2021/12/07 00:24:49;;;;;;;24.50;22.90;;;2.50;99.90;;;;;;5049220;28;20821;-70
2021/12/07 00:27:16;;;;;;;26.13;24.23;;;2.40;99.90;;;;;;5054299;28;20509;-71
2021/12/07 00:29:43;;;;;;;26.80;25.00;;;2.40;99.90;;;;;;5054397;28;20995;-71
2021/12/07 00:32:23;;;;;;;27.60;25.60;;;2.50;99.90;;;;;;5058538;28;20467;-71
2021/12/07 00:35:14;;;;;;;28.57;26.37;;;2.50;99.90;;;;;;5058917;28;20458;-71
2021/12/07 00:37:44;;;;;;;26.73;24.83;;;2.50;99.90;;;;;;5062744;28;20594;-71
2021/12/07 00:40:15;;;;;;;28.63;26.47;;;2.60;99.90;;;;;;5057416;28;20491;-71
2021/12/07 00:42:41;;;;;;;29.00;26.80;;;2.70;99.90;;;;;;5056444;28;20490;-70
2021/12/07 00:45:10;;;;;;;28.63;26.40;;;2.70;99.90;;;;;;5056156;28;20498;-70
2021/12/07 00:47:39;;;;;;;30.20;27.60;;;2.90;99.90;;;;;;5057095;28;20513;-69
2021/12/07 00:50:08;;;;;;;29.77;27.43;;;3.00;99.90;;;;;;5057723;28;20466;-71
2021/12/07 00:52:35;;;;;;;29.57;27.30;;;3.00;99.90;;;;;;5058122;28;20459;-71
2021/12/07 00:55:06;;;;;;;30.73;28.10;;;3.10;99.90;;;;;;5049321;28;20470;-69
2021/12/07 00:57:34;;;;;;;31.83;29.40;;;3.20;99.90;;;;;;5055580;28;20529;-71
2021/12/07 01:00:01;;;;;;;32.00;29.20;;;3.30;99.90;;;;;;5055438;28;20516;-70
2021/12/07 01:02:28;;;;;;;32.73;29.63;;;3.40;99.90;;;;;;5057672;28;20494;-72
2021/12/07 01:05:03;;;;;;;33.90;31.10;;;3.40;99.90;;;;;;5058148;28;20463;-71
2021/12/07 01:07:54;;;;;;;35.47;31.80;;;3.40;99.90;;;;;;5059771;28;21033;-71
2021/12/07 01:24:41;;;;;;;37.40;33.67;;;3.60;99.90;;;;;;5052753;28;20523;-72
2021/12/07 01:27:09;;;;;;;37.07;33.27;;;3.70;99.90;;;;;;5048253;28;20474;-72
2021/12/07 01:29:37;;;;;;;39.27;34.67;;;3.70;99.90;;;;;;5054030;28;20473;-70
2021/12/07 01:32:13;;;;;;;37.63;34.23;;;3.70;99.90;;;;;;5055879;28;20456;-72
2021/12/07 01:35:09;;;;;;;37.60;33.83;;;3.70;99.90;;;;;;5054304;28;20469;-72
2021/12/07 01:37:51;;;;;;;37.17;33.47;;;3.70;99.90;;;;;;5054293;28;20482;-70
2021/12/07 01:40:38;;;;;;;38.90;34.80;;;3.90;99.90;;;;;;5056088;28;20510;-70
2021/12/07 01:46:33;;;;;;;37.97;34.47;;;3.90;99.90;;;;;;5047643;28;20942;-72
2021/12/07 01:52:23;;;;;;;40.53;34.47;;;3.80;99.90;;;;;;5056120;28;20867;-70
2021/12/07 02:00:13;;;;;;;34.57;31.77;;;3.90;99.90;;;;;;5055984;28;20825;-70
2021/12/07 02:02:41;;;;;;;33.97;31.00;;;3.80;99.90;;;;;;5055341;28;20817;-69
2021/12/07 02:05:09;;;;;;;34.50;30.80;;;3.80;99.90;;;;;;5055657;28;21194;-71
2021/12/07 02:07:36;;;;;;;32.03;29.53;;;3.90;99.90;;;;;;5057468;28;20460;-71
2021/12/07 02:10:09;;;;;;;34.07;29.30;;;3.90;99.90;;;;;;5051242;28;20605;-69
2021/12/07 02:12:43;;;;;;;46.53;35.83;;;4.00;99.90;;;;;;5054828;28;20464;-70
2021/12/07 02:15:12;;;;;;;34.97;31.23;;;4.10;99.90;;;;;;5057285;28;20509;-72
2021/12/07 02:17:39;;;;;;;34.33;31.07;;;4.10;99.90;;;;;;5055085;28;20842;-72
2021/12/07 02:20:08;;;;;;;34.20;31.23;;;4.10;99.90;;;;;;5057994;28;20508;-73
2021/12/07 02:22:37;;;;;;;42.10;32.93;;;4.20;99.90;;;;;;5055025;28;20536;-72
2021/12/07 02:25:05;;;;;;;36.23;32.77;;;4.20;99.90;;;;;;5056130;28;20966;-72
2021/12/07 02:27:32;;;;;;;36.50;33.00;;;4.20;99.90;;;;;;5055990;28;20933;-71
2021/12/07 02:29:59;;;;;;;37.47;34.10;;;4.30;99.90;;;;;;5055446;28;20458;-69
2021/12/07 02:32:26;;;;;;;36.17;32.80;;;4.30;99.90;;;;;;5053984;28;20456;-71
2021/12/07 02:34:57;;;;;;;36.27;32.47;;;4.30;99.90;;;;;;5048436;28;20468;-72
2021/12/07 02:37:25;;;;;;;39.13;35.13;;;4.30;99.90;;;;;;5057795;28;20486;-72
2021/12/07 02:39:53;;;;;;;42.50;36.97;;;4.40;99.90;;;;;;5054597;28;20490;-71
2021/12/07 02:42:20;;;;;;;39.20;35.30;;;4.40;99.90;;;;;;5054941;28;20460;-70
2021/12/07 02:44:48;;;;;;;41.07;36.63;;;4.40;99.90;;;;;;5052156;28;20482;-73
2021/12/07 02:47:15;;;;;;;42.93;38.83;;;4.30;99.90;;;;;;5052073;28;20482;-73
2021/12/07 02:49:42;;;;;;;41.83;36.77;;;4.30;99.90;;;;;;5054039;28;20546;-70
2021/12/07 02:52:10;;;;;;;38.10;34.40;;;4.20;99.90;;;;;;5052899;28;20961;-72
2021/12/07 02:54:43;;;;;;;51.37;37.73;;;4.10;99.90;;;;;;5050898;28;20468;-71
2021/12/07 02:57:12;;;;;;;45.50;34.20;;;4.10;99.90;;;;;;5054057;28;20489;-72
2021/12/07 02:59:42;;;;;;;41.67;33.10;;;4.10;99.90;;;;;;5046114;28;20459;-72
2021/12/07 03:02:11;;;;;;;42.20;32.30;;;4.10;99.90;;;;;;5062733;28;20458;-70
2021/12/07 03:04:43;;;;;;;35.17;31.37;;;4.10;99.90;;;;;;5061775;28;20490;-72
2021/12/07 03:07:18;;;;;;;35.80;32.37;;;4.10;99.90;;;;;;5057960;28;20464;-70
2021/12/07 03:25:47;;;;;;;37.40;32.67;;;4.10;99.90;;;;;;5060538;28;20461;-71
2021/12/07 03:26:26;;;;;;;38.37;30.97;;;3.90;99.90;;;;;;5065608;28;20647;-72
2021/12/07 03:28:58;;;;;;;36.40;32.10;;;3.90;99.90;;;;;;5050549;28;20542;-73
2021/12/07 03:31:26;;;;;;;31.67;28.70;;;3.90;99.90;;;;;;5054068;28;20829;-72
2021/12/07 03:33:55;;;;;;;29.53;26.83;;;3.90;99.90;;;;;;5054913;28;20474;-72
2021/12/07 03:36:22;;;;;;;31.57;28.53;;;3.90;99.90;;;;;;5057383;28;20460;-69
2021/12/07 03:38:49;;;;;;;33.33;29.67;;;4.00;99.90;;;;;;5051655;28;20507;-72
2021/12/07 03:41:17;;;;;;;32.30;29.30;;;4.00;99.90;;;;;;5054431;28;20467;-71
2021/12/07 03:43:43;;;;;;;32.37;28.20;;;4.00;99.90;;;;;;5058646;28;20478;-70
2021/12/07 03:46:13;;;;;;;34.73;31.30;;;4.00;99.90;;;;;;5061794;28;20467;-71
2021/12/07 03:48:42;;;;;;;29.33;26.53;;;3.90;99.90;;;;;;5062753;28;20463;-72
2021/12/07 03:51:09;;;;;;;32.67;28.87;;;4.00;99.90;;;;;;5050618;28;21387;-71
2021/12/07 03:53:37;;;;;;;32.63;29.10;;;4.10;99.90;;;;;;5057413;28;20470;-72
2021/12/07 03:56:05;;;;;;;43.13;28.97;;;4.10;99.90;;;;;;5054500;28;20558;-70
2021/12/07 03:58:32;;;;;;;32.90;30.10;;;4.00;99.90;;;;;;5055710;28;20553;-71
2021/12/07 04:00:59;;;;;;;31.50;28.50;;;4.10;99.90;;;;;;5053790;28;20474;-72
2021/12/07 04:03:32;;;;;;;34.03;28.30;;;4.00;99.90;;;;;;5056181;28;20458;-69
2021/12/07 04:06:04;;;;;;;37.40;27.53;;;4.00;99.90;;;;;;5061811;28;21048;-71
2021/12/07 04:08:31;;;;;;;42.27;29.37;;;4.00;99.90;;;;;;5052570;28;20448;-72
2021/12/07 04:10:59;;;;;;;32.33;29.00;;;4.00;99.90;;;;;;5057593;28;20838;-71
2021/12/07 04:13:26;;;;;;;34.07;30.03;;;4.00;99.90;;;;;;5055629;28;20546;-69
2021/12/07 04:15:53;;;;;;;32.90;28.97;;;3.90;99.90;;;;;;5054809;28;20906;-68
2021/12/07 04:18:20;;;;;;;31.33;28.43;;;3.90;99.90;;;;;;5058535;28;20519;-69
2021/12/07 04:20:48;;;;;;;32.43;29.03;;;3.90;99.90;;;;;;5050669;28;20968;-69
2021/12/07 04:23:15;;;;;;;34.40;30.80;;;3.80;99.90;;;;;;5052564;28;20459;-68
2021/12/07 04:25:43;;;;;;;36.50;29.30;;;3.80;99.90;;;;;;5055653;28;20464;-69
2021/12/07 04:28:11;;;;;;;38.50;30.80;;;3.80;99.90;;;;;;5057100;28;20472;-69
2021/12/07 04:30:40;;;;;;;37.83;29.50;;;3.80;99.90;;;;;;5059932;28;20461;-69
2021/12/07 04:33:09;;;;;;;31.27;28.10;;;3.90;99.90;;;;;;5056967;28;20467;-69
2021/12/07 04:35:37;;;;;;;31.37;28.27;;;3.90;99.90;;;;;;5057923;28;20885;-69
2021/12/07 04:38:05;;;;;;;32.73;28.27;;;4.00;99.90;;;;;;5060037;28;20542;-68
2021/12/07 04:40:35;;;;;;;35.50;29.20;;;4.00;99.90;;;;;;5052527;28;20853;-69
2021/12/07 04:43:02;;;;;;;31.23;28.27;;;4.00;99.90;;;;;;5062124;28;20583;-69
2021/12/07 04:45:37;;;;;;;37.70;27.97;;;3.90;99.90;;;;;;5058761;28;20482;-69
2021/12/07 04:48:30;;;;;;;31.93;28.90;;;3.90;99.90;;;;;;5056242;28;20486;-68
2021/12/07 04:59:13;;;;;;;41.93;29.20;;;3.80;99.90;;;;;;5056193;28;20660;-68
2021/12/07 05:01:41;;;;;;;34.43;28.33;;;3.80;99.90;;;;;;5050159;28;20952;-69
2021/12/07 05:04:12;;;;;;;33.93;28.30;;;3.90;99.90;;;;;;5052210;28;20462;-69
2021/12/07 05:06:45;;;;;;;36.20;30.70;;;3.80;99.90;;;;;;5053376;28;20456;-69
2021/12/07 05:09:31;;;;;;;31.87;28.57;;;3.90;99.90;;;;;;5052213;28;20456;-68
2021/12/07 05:12:20;;;;;;;32.10;28.60;;;3.80;99.90;;;;;;5050423;28;20509;-69
2021/12/07 05:14:47;;;;;;;32.23;27.87;;;3.80;99.90;;;;;;5060954;28;20466;-68
2021/12/07 05:17:25;;;;;;;40.17;28.30;;;3.80;99.90;;;;;;5054846;28;20470;-69
2021/12/07 05:39:06;;;;;;;33.53;29.50;;;3.70;99.90;;;;;;5051768;28;20515;-68
2021/12/07 05:41:34;;;;;;;32.30;28.93;;;3.60;99.90;;;;;;5059880;28;20452;-68
2021/12/07 05:44:03;;;;;;;32.10;28.90;;;3.50;99.90;;;;;;5055342;28;20506;-68
2021/12/07 05:46:31;;;;;;;38.20;31.40;;;3.50;99.90;;;;;;5052598;28;20462;-68
2021/12/07 05:48:59;;;;;;;41.23;30.07;;;3.40;99.90;;;;;;5054194;28;20899;-68
2021/12/07 05:51:26;;;;;;;36.47;30.40;;;3.40;99.90;;;;;;5054201;28;20463;-68
2021/12/07 05:53:53;;;;;;;40.17;31.10;;;3.40;99.90;;;;;;5053280;28;20455;-68
2021/12/07 05:56:20;;;;;;;40.67;32.83;;;3.20;99.90;;;;;;5059417;28;20473;-68
2021/12/07 05:58:49;;;;;;;34.50;31.40;;;3.20;99.90;;;;;;5059777;28;20475;-68
2021/12/07 06:01:16;;;;;;;38.17;33.10;;;3.20;99.90;;;;;;5056444;28;20464;-68
2021/12/07 06:03:43;;;;;;;35.17;31.43;;;3.20;99.90;;;;;;5051421;28;20466;-68
2021/12/07 06:06:10;;;;;;;37.20;33.40;;;3.20;99.90;;;;;;5050851;28;20985;-68
2021/12/07 06:08:37;;;;;;;35.77;31.90;;;3.20;99.90;;;;;;5058257;28;20474;-67
2021/12/07 06:11:04;;;;;;;35.47;31.20;;;3.20;99.90;;;;;;5049353;28;20448;-68
2021/12/07 06:13:31;;;;;;;33.30;29.87;;;3.20;99.90;;;;;;5056250;28;20459;-68
2021/12/07 06:16:06;;;;;;;33.27;29.83;;;3.20;99.90;;;;;;5057099;28;20464;-68
2021/12/07 06:18:33;;;;;;;33.10;29.90;;;3.20;99.90;;;;;;5057448;28;20520;-68
2021/12/07 06:21:00;;;;;;;34.17;30.97;;;3.30;99.90;;;;;;5052211;28;20459;-68
2021/12/07 06:23:27;;;;;;;36.50;32.00;;;3.30;99.90;;;;;;5058959;28;20504;-68
2021/12/07 06:25:56;;;;;;;34.10;30.43;;;3.30;99.90;;;;;;5060452;28;20465;-68
2021/12/07 06:28:24;;;;;;;34.73;31.00;;;3.40;99.90;;;;;;5055933;28;20467;-68
2021/12/07 06:30:51;;;;;;;37.30;30.63;;;3.30;99.90;;;;;;5050313;28;20479;-68
2021/12/07 06:33:23;;;;;;;37.30;29.67;;;3.30;99.90;;;;;;5054521;28;20486;-68
2021/12/07 06:35:50;;;;;;;37.40;31.50;;;3.30;99.90;;;;;;5056570;28;20467;-68
2021/12/07 06:38:18;;;;;;;35.63;30.03;;;3.20;99.90;;;;;;5051453;28;20493;-68
2021/12/07 06:40:45;;;;;;;36.60;31.33;;;3.20;99.90;;;;;;5059962;28;20482;-68
2021/12/07 06:43:12;;;;;;;33.77;30.70;;;3.10;99.90;;;;;;5057566;28;20474;-67
2021/12/07 06:45:39;;;;;;;35.50;30.70;;;3.10;99.90;;;;;;5062127;28;20474;-67
2021/12/07 06:48:07;;;;;;;34.53;30.83;;;3.10;99.90;;;;;;5059870;28;20462;-68
2021/12/07 06:50:35;;;;;;;33.90;30.23;;;3.00;99.90;;;;;;5055344;28;20455;-67
2021/12/07 06:53:04;;;;;;;47.23;31.67;;;3.00;99.90;;;;;;5055403;28;20464;-68
2021/12/07 06:55:31;;;;;;;41.70;32.07;;;3.00;99.90;;;;;;5056321;28;20467;-68
2021/12/07 06:57:58;;;;;;;39.33;32.00;;;2.90;99.90;;;;;;5055941;28;20478;-68
2021/12/07 07:00:26;;;;;;;42.40;34.10;;;2.90;99.90;;;;;;5053371;28;20465;-68
2021/12/07 07:02:52;;;;;;;37.50;30.47;;;2.90;99.90;;;;;;5058148;28;20775;-68
2021/12/07 07:05:20;;;;;;;34.83;31.63;;;2.80;99.90;;;;;;5058289;28;20467;-68
2021/12/07 07:07:49;;;;;;;32.93;30.23;;;2.70;99.90;;;;;;5054627;28;20814;-68
2021/12/07 07:10:19;;;;;;;44.43;30.93;;;2.60;99.90;;;;;;5062327;28;20466;-68
2021/12/07 07:12:47;;;;;;;42.30;32.63;;;2.50;99.90;;;;;;5056066;28;20466;-68
2021/12/07 07:15:15;;;;;;;36.73;33.30;;;2.50;99.90;;;;;;5058240;28;20467;-68
2021/12/07 07:17:42;;;;;;;39.80;34.10;;;2.50;99.90;;;;;;5061290;28;20483;-68
2021/12/07 07:20:12;;;;;;;41.13;34.87;;;2.40;99.90;;;;;;5060064;28;20574;-68
2021/12/07 07:22:39;;;;;;;37.63;34.43;;;2.40;99.90;;;;;;5055661;28;20486;-68
2021/12/07 07:25:09;;;;;;;40.00;36.13;;;2.30;99.90;;;;;;5055105;28;20836;-68
2021/12/07 07:27:36;;;;;;;46.63;36.60;;;2.30;99.90;;;;;;5051907;28;20458;-68
2021/12/07 07:30:05;;;;;;;40.80;35.03;;;2.20;99.90;;;;;;5056379;28;21232;-68
2021/12/07 07:32:32;;;;;;;36.57;33.10;;;2.20;99.90;;;;;;5057985;28;20789;-68
2021/12/07 07:34:59;;;;;;;38.03;33.93;;;2.20;99.90;;;;;;5056656;28;20464;-68
2021/12/07 07:37:26;;;;;;;37.30;33.77;;;2.10;99.90;;;;;;5051868;28;20466;-68
2021/12/07 07:39:53;;;;;;;35.90;32.47;;;2.10;99.90;;;;;;5056374;28;20494;-68
2021/12/07 07:42:22;;;;;;;38.27;34.30;;;2.10;99.90;;;;;;5054444;28;21177;-68
2021/12/07 07:44:51;;;;;;;37.77;33.73;;;2.10;99.90;;;;;;5056170;28;21026;-68
2021/12/07 07:47:18;;;;;;;43.37;32.73;;;2.10;99.90;;;;;;5046912;28;20473;-68
2021/12/07 07:49:45;;;;;;;38.07;32.57;;;2.10;99.90;;;;;;5045284;28;20500;-68
2021/12/07 07:52:12;;;;;;;41.53;34.40;;;2.10;99.90;;;;;;5052271;28;21111;-68
2021/12/07 07:54:39;;;;;;;38.73;33.77;;;2.10;99.90;;;;;;5058413;28;20463;-68
2021/12/07 07:57:07;;;;;;;40.63;32.73;;;2.10;99.90;;;;;;5054690;28;20969;-68
2021/12/07 07:59:36;;;;;;;34.77;31.40;;;2.10;99.90;;;;;;5053315;28;20474;-68
2021/12/07 08:02:03;;;;;;;37.97;34.73;;;2.10;99.90;;;;;;5056357;28;20459;-68
2021/12/07 08:04:31;;;;;;;38.13;34.63;;;2.10;99.90;;;;;;5060009;28;20470;-68
2021/12/07 08:06:58;;;;;;;36.97;33.77;;;2.10;99.90;;;;;;5053064;28;20461;-68
2021/12/07 08:09:24;;;;;;;37.00;33.13;;;2.10;99.90;;;;;;5050685;28;20459;-67
2021/12/07 08:11:53;;;;;;;35.27;31.87;;;2.10;99.90;;;;;;5048944;28;20482;-69
2021/12/07 08:14:20;;;;;;;37.70;33.20;;;2.10;99.90;;;;;;5054655;28;20896;-67
2021/12/07 08:16:49;;;;;;;37.63;33.93;;;2.10;99.90;;;;;;5056425;28;20964;-68
2021/12/07 08:19:16;;;;;;;36.87;33.20;;;2.20;99.90;;;;;;5053706;28;20483;-68
2021/12/07 08:21:43;;;;;;;34.80;31.10;;;2.30;99.90;;;;;;5058608;28;21028;-68
2021/12/07 08:24:10;;;;;;;36.67;32.77;;;2.30;99.90;;;;;;5054823;28;20468;-67
2021/12/07 08:26:37;;;;;;;35.03;31.23;;;2.30;99.90;;;;;;5053612;28;20478;-68
2021/12/07 08:29:04;;;;;;;36.40;32.27;;;2.40;99.90;;;;;;5053360;28;20460;-68
2021/12/07 08:31:31;;;;;;;39.20;33.40;;;2.40;99.90;;;;;;5052956;28;20474;-67
2021/12/07 08:34:01;;;;;;;37.07;33.07;;;2.50;99.90;;;;;;5062722;28;20462;-67
2021/12/07 08:36:28;;;;;;;33.47;30.40;;;2.60;99.90;;;;;;5057201;28;20466;-68
2021/12/07 08:38:55;;;;;;;36.10;32.50;;;2.60;99.90;;;;;;5055287;28;20917;-68
2021/12/07 08:41:22;;;;;;;36.77;32.87;;;2.70;99.90;;;;;;5052577;28;20463;-68
2021/12/07 08:43:49;;;;;;;33.53;30.40;;;2.80;99.90;;;;;;5053241;28;20487;-67
2021/12/07 08:46:17;;;;;;;36.57;33.47;;;2.80;99.90;;;;;;5054209;28;20458;-68
2021/12/07 08:48:44;;;;;;;33.60;30.50;;;2.90;99.90;;;;;;5054511;28;20497;-68
2021/12/07 08:51:14;;;;;;;34.33;30.63;;;2.90;99.90;;;;;;5064981;28;20466;-68
2021/12/07 08:53:48;;;;;;;36.47;32.77;;;3.00;99.90;;;;;;5052909;28;20467;-67
2021/12/07 09:01:53;;;;;;;32.40;29.10;;;3.20;99.90;;;;;;5043914;28;21004;-68
2021/12/07 09:04:22;;;;;;;32.47;29.47;;;3.20;99.90;;;;;;5048966;28;20484;-68
2021/12/07 09:06:51;;;;;;;32.97;29.87;;;3.30;99.90;;;;;;5049473;28;20561;-68
2021/12/07 09:09:18;;;;;;;33.97;30.70;;;3.40;99.90;;;;;;5052989;28;20465;-69
2021/12/07 09:11:46;;;;;;;34.50;30.10;;;3.40;99.90;;;;;;5059204;28;20466;-67
2021/12/07 09:14:17;;;;;;;37.77;29.70;;;3.50;99.90;;;;;;5047990;28;21000;-68
2021/12/07 09:16:45;;;;;;;33.77;30.27;;;3.60;99.90;;;;;;5047806;28;20529;-67
2021/12/07 09:19:12;;;;;;;32.70;29.30;;;3.60;99.90;;;;;;5045122;28;20479;-68
2021/12/07 09:21:39;;;;;;;33.43;30.30;;;3.70;99.90;;;;;;5049501;28;20574;-68
2021/12/07 09:24:09;;;;;;;30.60;27.80;;;3.80;99.90;;;;;;5048561;28;20794;-68
2021/12/07 09:26:36;;;;;;;27.20;24.60;;;3.80;99.90;;;;;;5052180;28;20459;-67
2021/12/07 09:29:03;;;;;;;30.43;27.53;;;3.80;99.90;;;;;;5055380;28;20467;-68
2021/12/07 09:31:30;;;;;;;28.83;26.10;;;3.90;99.90;;;;;;5046669;28;20812;-68
2021/12/07 09:33:57;;;;;;;34.47;28.33;;;4.00;99.90;;;;;;5048516;28;20499;-67
2021/12/07 09:36:25;;;;;;;30.27;26.97;;;4.00;99.90;;;;;;5051497;28;21237;-68
2021/12/07 09:38:53;;;;;;;29.70;26.90;;;4.00;99.90;;;;;;5047682;28;20464;-68
2021/12/07 09:41:21;;;;;;;29.43;26.63;;;4.00;99.90;;;;;;5053521;28;20494;-68
2021/12/07 09:43:48;;;;;;;30.10;27.00;;;4.00;99.90;;;;;;5047734;28;20486;-67
2021/12/07 09:46:16;;;;;;;28.53;25.53;;;4.00;99.90;;;;;;5048799;28;20469;-70
2021/12/07 09:48:44;;;;;;;28.73;25.50;;;4.10;99.90;;;;;;5046222;28;20475;-70
2021/12/07 09:51:14;;;;;;;31.70;25.80;;;4.10;99.90;;;;;;5050250;28;20941;-70
2021/12/07 09:53:41;;;;;;;31.07;25.83;;;4.10;99.90;;;;;;5048320;28;20555;-70
2021/12/07 09:56:09;;;;;;;28.43;25.63;;;4.10;99.90;;;;;;5050830;28;20498;-69
2021/12/07 09:58:39;;;;;;;30.00;26.87;;;4.20;99.90;;;;;;5053516;28;20467;-68
2021/12/07 10:01:08;;;;;;;28.40;25.33;;;4.20;99.90;;;;;;5049328;28;20490;-68
2021/12/07 10:03:35;;;;;;;26.90;24.70;;;4.40;99.90;;;;;;5047581;28;20463;-67
2021/12/07 10:06:02;;;;;;;28.40;24.40;;;4.40;99.90;;;;;;5047957;28;20460;-68
2021/12/07 10:08:29;;;;;;;31.30;25.50;;;4.40;99.90;;;;;;5046043;28;20460;-70
2021/12/07 10:10:58;;;;;;;28.37;25.47;;;4.50;99.90;;;;;;5042553;28;20489;-68
2021/12/07 10:13:28;;;;;;;34.10;25.53;;;4.50;99.90;;;;;;5049486;28;20468;-70
2021/12/07 10:15:58;;;;;;;32.77;26.90;;;4.50;99.90;;;;;;5057301;28;20465;-69
2021/12/07 10:18:28;;;;;;;32.57;24.07;;;4.60;99.90;;;;;;5054072;28;20555;-68
2021/12/07 10:20:58;;;;;;;30.77;25.93;;;4.60;99.90;;;;;;5048465;28;20575;-68
2021/12/07 10:23:31;;;;;;;25.77;23.10;;;4.60;99.90;;;;;;5051757;28;21421;-71
2021/12/07 10:26:02;;;;;;;36.27;24.17;;;4.60;99.90;;;;;;5051681;28;20555;-68
2021/12/07 10:28:32;;;;;;;25.20;22.83;;;4.70;99.90;;;;;;5047514;28;20463;-68
2021/12/07 10:31:14;;;;;;;25.97;21.97;;;4.70;99.90;;;;;;5051274;28;20981;-68
2021/12/07 10:33:44;;;;;;;23.20;20.60;;;4.70;99.90;;;;;;5046954;28;20524;-69
2021/12/07 10:36:13;;;;;;;24.27;21.70;;;4.70;99.90;;;;;;5050101;28;20554;-69
2021/12/07 10:38:41;;;;;;;28.80;21.73;;;4.70;99.90;;;;;;5052708;28;20493;-69
2021/12/07 10:41:11;;;;;;;34.40;20.00;;;4.80;99.90;;;;;;5049593;28;21026;-69
2021/12/07 10:43:47;;;;;;;23.23;19.80;;;4.80;99.90;;;;;;5051810;28;20577;-68
2021/12/07 10:46:34;;;;;;;20.30;18.50;;;4.80;99.90;;;;;;5048470;28;20553;-68
2021/12/07 10:49:29;;;;;;;21.93;18.50;;;4.80;99.90;;;;;;5049786;28;20459;-68
2021/12/07 10:52:00;;;;;;;26.67;19.67;;;4.90;99.90;;;;;;5057105;28;20464;-68
2021/12/07 10:54:29;;;;;;;21.43;19.53;;;4.90;99.90;;;;;;5052517;28;20452;-70
2021/12/07 10:56:57;;;;;;;20.43;17.97;;;4.90;99.90;;;;;;5046179;28;20585;-68
2021/12/07 10:59:24;;;;;;;26.63;19.20;;;4.90;99.90;;;;;;5054250;28;20509;-68
2021/12/07 11:01:54;;;;;;;21.80;18.53;;;4.90;99.90;;;;;;5049336;28;20470;-68
2021/12/07 11:04:33;;;;;;;21.60;18.73;;;5.00;99.90;;;;;;5049020;28;21021;-68
2021/12/07 11:07:13;;;;;;;28.00;20.10;;;5.40;99.90;;;;;;5046698;28;20893;-68
2021/12/07 11:09:59;;;;;;;29.80;18.57;;;5.80;99.90;;;;;;5055844;28;20467;-69
2021/12/07 11:12:30;;;;;;;31.57;22.00;;;5.90;99.90;;;;;;5057405;28;20891;-68
2021/12/07 11:14:59;;;;;;;22.00;18.80;;;5.80;99.90;;;;;;5051384;28;20460;-69
2021/12/07 11:17:29;;;;;;;22.57;20.23;;;5.60;99.90;;;;;;5050955;28;21018;-68
2021/12/07 11:19:57;;;;;;;22.10;19.83;;;5.60;99.90;;;;;;5049212;28;20523;-68
2021/12/07 11:22:26;;;;;;;21.53;19.73;;;5.60;99.90;;;;;;5050407;28;20550;-69
2021/12/07 11:24:55;;;;;;;21.27;19.30;;;5.60;99.90;;;;;;5052416;28;20954;-72
2021/12/07 11:30:11;;;;;;;20.23;18.50;;;5.70;99.90;;;;;;5052941;28;20494;-71
2021/12/07 11:32:44;;;;;;;23.67;18.97;;;5.80;99.90;;;;;;5046948;28;20491;-68
2021/12/07 11:35:18;;;;;;;20.70;18.57;;;6.20;99.90;;;;;;5049699;28;20496;-68
2021/12/07 11:37:47;;;;;;;22.23;18.40;;;7.00;99.90;;;;;;5059746;28;20454;-69
2021/12/07 11:40:18;;;;;;;19.60;17.70;;;7.70;99.90;;;;;;5048346;28;20493;-69
2021/12/07 11:42:46;;;;;;;23.93;18.03;;;8.10;99.90;;;;;;5048933;28;20469;-70
2021/12/07 11:45:15;;;;;;;21.60;17.17;;;8.40;99.90;;;;;;5056038;28;20483;-69
2021/12/07 11:47:47;;;;;;;17.70;16.50;;;8.40;99.90;;;;;;5049673;28;20463;-68
2021/12/07 11:50:23;;;;;;;19.00;17.20;;;8.20;99.90;;;;;;5052648;28;21046;-70
2021/12/07 11:52:54;;;;;;;19.90;16.63;;;8.40;99.90;;;;;;5049509;28;21015;-69
2021/12/07 11:55:21;;;;;;;18.93;17.63;;;8.80;99.90;;;;;;5050727;28;20821;-71
2021/12/07 11:57:48;;;;;;;18.07;16.23;;;8.70;99.90;;;;;;5052417;28;20469;-72
2021/12/07 12:00:19;;;;;;;21.90;16.87;;;8.60;99.90;;;;;;5050055;28;20487;-68
2021/12/07 12:02:47;;;;;;;19.40;17.40;;;8.60;99.90;;;;;;5046741;28;20544;-69
2021/12/07 12:05:15;;;;;;;18.57;16.50;;;9.00;99.90;;;;;;5049912;28;20470;-69
2021/12/07 12:07:44;;;;;;;18.60;16.90;;;9.30;99.90;;;;;;5044131;28;20466;-68
2021/12/07 12:10:13;;;;;;;17.50;16.10;;;9.60;99.90;;;;;;5050598;28;20470;-70
2021/12/07 12:13:07;;;;;;;19.07;17.33;;;9.60;99.90;;;;;;5052597;28;20520;-68
2021/12/07 12:15:53;;;;;;;18.37;16.73;;;9.30;99.90;;;;;;5053057;28;20465;-68
2021/12/07 12:18:32;;;;;;;18.30;16.70;;;9.20;99.90;;;;;;5050946;28;20617;-69
2021/12/07 12:21:12;;;;;;;17.73;16.57;;;9.10;99.90;;;;;;5047200;28;20599;-69
2021/12/07 12:23:48;;;;;;;18.17;16.80;;;9.40;99.90;;;;;;5046311;28;20999;-69
2021/12/07 12:26:22;;;;;;;19.20;17.00;;;9.80;99.90;;;;;;5051350;28;20829;-68
2021/12/07 12:28:49;;;;;;;18.30;16.73;;;10.00;99.90;;;;;;5051033;28;20474;-69
2021/12/07 12:31:17;;;;;;;17.37;16.03;;;10.10;99.90;;;;;;5056455;28;20516;-68
2021/12/07 12:33:49;;;;;;;17.80;16.50;;;9.90;99.90;;;;;;5042672;28;20762;-68
2021/12/07 12:36:16;;;;;;;21.73;15.77;;;9.80;99.90;;;;;;5042232;28;20501;-69
2021/12/07 12:38:48;;;;;;;17.83;16.33;;;9.90;99.90;;;;;;5052959;28;20470;-70
2021/12/07 12:41:16;;;;;;;17.20;15.73;;;9.70;99.90;;;;;;5048903;28;20513;-72
2021/12/07 12:43:48;;;;;;;16.60;15.50;;;9.60;99.90;;;;;;5042959;28;21067;-68
2021/12/07 12:46:18;;;;;;;21.13;16.37;;;9.50;99.90;;;;;;5054047;28;21084;-68
2021/12/07 12:48:48;;;;;;;16.97;15.73;;;9.70;99.90;;;;;;5052619;28;20466;-69
2021/12/07 12:51:16;;;;;;;16.10;15.20;;;9.40;99.90;;;;;;5047933;28;20472;-69
2021/12/07 12:53:43;;;;;;;17.40;16.10;;;9.40;99.90;;;;;;5052248;28;20475;-71
2021/12/07 12:56:12;;;;;;;17.73;16.13;;;9.30;99.90;;;;;;5048561;28;20463;-68
2021/12/07 12:58:42;;;;;;;19.47;16.70;;;9.20;99.90;;;;;;5049883;28;20508;-69
2021/12/07 13:01:16;;;;;;;18.93;17.00;;;9.30;99.90;;;;;;5049323;28;20493;-69
2021/12/07 13:04:15;;;;;;;19.23;17.73;;;9.40;99.90;;;;;;5044371;28;20466;-68
2021/12/07 13:06:52;;;;;;;18.33;16.83;;;9.30;99.90;;;;;;5042550;28;20482;-72
2021/12/07 13:09:34;;;;;;;16.97;15.97;;;8.90;99.90;;;;;;5047108;28;20809;-68
2021/12/07 13:12:04;;;;;;;16.73;15.73;;;9.10;99.90;;;;;;5049554;28;20464;-69
2021/12/07 13:14:39;;;;;;;18.83;17.17;;;9.20;99.90;;;;;;5045090;28;20479;-69
2021/12/07 13:17:16;;;;;;;20.83;19.00;;;9.30;99.90;;;;;;5054026;28;20474;-69
2021/12/07 13:20:15;;;;;;;22.23;20.13;;;9.10;99.90;;;;;;5049135;28;20521;-73
2021/12/07 13:22:46;;;;;;;19.67;18.00;;;8.90;99.90;;;;;;5028437;28;20463;-69
2021/12/07 13:25:16;;;;;;;24.43;18.50;;;8.80;99.90;;;;;;5053039;28;20470;-72
2021/12/07 13:28:10;;;;;;;18.87;17.23;;;8.60;99.90;;;;;;5048295;28;20456;-68
2021/12/07 13:30:39;;;;;;;19.97;18.27;;;8.60;99.90;;;;;;5052174;28;20461;-70
2021/12/07 13:33:12;;;;;;;19.20;17.47;;;8.40;99.90;;;;;;5043314;28;20481;-71
2021/12/07 13:35:38;;;;;;;19.10;17.23;;;8.40;99.90;;;;;;5046778;28;20467;-69
2021/12/07 13:38:18;;;;;;;19.90;18.23;;;8.30;99.90;;;;;;5051098;28;20478;-69
2021/12/07 13:40:45;;;;;;;19.40;17.70;;;8.20;99.90;;;;;;5042943;28;20494;-69
2021/12/07 13:43:30;;;;;;;20.07;18.23;;;8.00;99.90;;;;;;5049534;28;20470;-69
2021/12/07 13:46:12;;;;;;;22.73;20.33;;;7.80;99.90;;;;;;5049889;28;20465;-68
2021/12/07 13:48:39;;;;;;;18.37;17.20;;;7.50;99.90;;;;;;5048298;28;20996;-69
2021/12/07 13:51:07;;;;;;;18.50;16.97;;;7.30;99.90;;;;;;5050814;28;21321;-69
2021/12/07 13:53:37;;;;;;;18.33;17.00;;;7.30;99.90;;;;;;5051306;28;20474;-69
2021/12/07 13:56:05;;;;;;;19.07;17.40;;;7.40;99.90;;;;;;5053495;28;20530;-69
2021/12/07 13:58:49;;;;;;;28.93;16.43;;;7.20;99.90;;;;;;5048576;28;20852;-68
2021/12/07 14:01:16;;;;;;;19.23;16.87;;;7.00;99.90;;;;;;5053545;28;21033;-70
2021/12/07 14:03:43;;;;;;;19.87;17.83;;;6.70;99.90;;;;;;5051263;28;20479;-69
2021/12/07 14:06:11;;;;;;;18.20;16.60;;;6.60;99.90;;;;;;5056016;28;20488;-68